sensor_id;sensor_type;location;lat;lon;timestamp;P1;durP1;ratioP1;P2;durP2;ratioP2
65461;SDS011;53236;43.666;18.444;2022-07-06T00:01:40;7.03;;;5.57;;
65461;SDS011;53236;43.666;18.444;2022-07-06T00:04:06;8.53;;;5.67;;
65461;SDS011;53236;43.666;18.444;2022-07-06T00:06:31;8.00;;;5.53;;
65461;SDS011;53236;43.666;18.444;2022-07-06T00:08:57;13.20;;;5.37;;
65461;SDS011;53236;43.666;18.444;2022-07-06T00:11:23;11.00;;;5.77;;
65461;SDS011;53236;43.666;18.444;2022-07-06T00:13:49;9.50;;;6.17;;
65461;SDS011;53236;43.666;18.444;2022-07-06T00:16:15;11.87;;;6.27;;
65461;SDS011;53236;43.666;18.444;2022-07-06T00:18:41;9.40;;;6.80;;
65461;SDS011;53236;43.666;18.444;2022-07-06T00:21:07;12.63;;;6.47;;
65461;SDS011;53236;43.666;18.444;2022-07-06T00:23:33;9.10;;;7.23;;
65461;SDS011;53236;43.666;18.444;2022-07-06T00:25:59;10.67;;;7.50;;
65461;SDS011;53236;43.666;18.444;2022-07-06T00:28:24;11.83;;;7.37;;
65461;SDS011;53236;43.666;18.444;2022-07-06T00:30:50;15.27;;;7.77;;
65461;SDS011;53236;43.666;18.444;2022-07-06T00:33:16;10.00;;;6.97;;
65461;SDS011;53236;43.666;18.444;2022-07-06T00:35:42;12.47;;;7.57;;
65461;SDS011;53236;43.666;18.444;2022-07-06T00:38:08;16.00;;;7.87;;
65461;SDS011;53236;43.666;18.444;2022-07-06T00:40:33;17.60;;;6.60;;
65461;SDS011;53236;43.666;18.444;2022-07-06T00:42:59;7.77;;;6.20;;
65461;SDS011;53236;43.666;18.444;2022-07-06T00:45:25;10.37;;;6.73;;
65461;SDS011;53236;43.666;18.444;2022-07-06T00:47:51;10.03;;;7.70;;
65461;SDS011;53236;43.666;18.444;2022-07-06T00:50:17;10.90;;;7.83;;
65461;SDS011;53236;43.666;18.444;2022-07-06T00:52:46;11.63;;;7.30;;
65461;SDS011;53236;43.666;18.444;2022-07-06T00:55:15;11.00;;;6.33;;
65461;SDS011;53236;43.666;18.444;2022-07-06T00:57:43;10.37;;;6.00;;
65461;SDS011;53236;43.666;18.444;2022-07-06T01:00:10;8.17;;;6.33;;
65461;SDS011;53236;43.666;18.444;2022-07-06T01:02:37;10.77;;;6.60;;
65461;SDS011;53236;43.666;18.444;2022-07-06T01:05:04;10.73;;;7.33;;
65461;SDS011;53236;43.666;18.444;2022-07-06T01:07:30;11.63;;;7.17;;
65461;SDS011;53236;43.666;18.444;2022-07-06T01:09:56;10.63;;;7.47;;
65461;SDS011;53236;43.666;18.444;2022-07-06T01:12:22;12.40;;;6.83;;
65461;SDS011;53236;43.666;18.444;2022-07-06T01:14:49;13.67;;;8.17;;
65461;SDS011;53236;43.666;18.444;2022-07-06T01:17:15;13.43;;;7.77;;
65461;SDS011;53236;43.666;18.444;2022-07-06T01:19:42;15.90;;;7.73;;
65461;SDS011;53236;43.666;18.444;2022-07-06T01:22:08;16.20;;;7.40;;
65461;SDS011;53236;43.666;18.444;2022-07-06T01:24:35;10.53;;;7.50;;
65461;SDS011;53236;43.666;18.444;2022-07-06T01:27:02;11.97;;;8.17;;
65461;SDS011;53236;43.666;18.444;2022-07-06T01:29:32;9.50;;;7.00;;
65461;SDS011;53236;43.666;18.444;2022-07-06T01:31:58;13.00;;;7.60;;
65461;SDS011;53236;43.666;18.444;2022-07-06T01:34:23;11.57;;;8.90;;
65461;SDS011;53236;43.666;18.444;2022-07-06T01:36:49;16.13;;;9.83;;
65461;SDS011;53236;43.666;18.444;2022-07-06T01:39:15;18.03;;;9.67;;
65461;SDS011;53236;43.666;18.444;2022-07-06T01:41:41;16.00;;;9.90;;
65461;SDS011;53236;43.666;18.444;2022-07-06T01:44:06;14.00;;;8.93;;
65461;SDS011;53236;43.666;18.444;2022-07-06T01:46:33;11.77;;;7.07;;
65461;SDS011;53236;43.666;18.444;2022-07-06T01:48:59;13.43;;;8.50;;
65461;SDS011;53236;43.666;18.444;2022-07-06T01:51:25;13.83;;;9.57;;
65461;SDS011;53236;43.666;18.444;2022-07-06T01:53:51;13.83;;;9.20;;
65461;SDS011;53236;43.666;18.444;2022-07-06T01:56:17;16.20;;;9.70;;
65461;SDS011;53236;43.666;18.444;2022-07-06T01:58:44;17.37;;;9.83;;
65461;SDS011;53236;43.666;18.444;2022-07-06T02:01:12;18.20;;;10.07;;
65461;SDS011;53236;43.666;18.444;2022-07-06T02:03:39;16.73;;;10.53;;
65461;SDS011;53236;43.666;18.444;2022-07-06T02:06:05;14.97;;;10.00;;
65461;SDS011;53236;43.666;18.444;2022-07-06T02:08:32;16.03;;;10.30;;
65461;SDS011;53236;43.666;18.444;2022-07-06T02:10:59;17.53;;;10.87;;
65461;SDS011;53236;43.666;18.444;2022-07-06T02:13:24;16.37;;;10.63;;
65461;SDS011;53236;43.666;18.444;2022-07-06T02:15:50;17.03;;;10.53;;
65461;SDS011;53236;43.666;18.444;2022-07-06T02:18:16;20.20;;;11.30;;
65461;SDS011;53236;43.666;18.444;2022-07-06T02:20:41;16.57;;;11.20;;
65461;SDS011;53236;43.666;18.444;2022-07-06T02:23:07;19.80;;;12.37;;
65461;SDS011;53236;43.666;18.444;2022-07-06T02:25:33;21.43;;;11.43;;
65461;SDS011;53236;43.666;18.444;2022-07-06T02:27:58;18.17;;;11.77;;
65461;SDS011;53236;43.666;18.444;2022-07-06T02:30:24;21.97;;;12.37;;
65461;SDS011;53236;43.666;18.444;2022-07-06T02:32:50;17.70;;;12.00;;
65461;SDS011;53236;43.666;18.444;2022-07-06T02:35:16;17.73;;;12.17;;
65461;SDS011;53236;43.666;18.444;2022-07-06T02:37:41;21.73;;;13.03;;
65461;SDS011;53236;43.666;18.444;2022-07-06T02:40:07;26.33;;;14.07;;
65461;SDS011;53236;43.666;18.444;2022-07-06T02:42:33;24.30;;;13.47;;
65461;SDS011;53236;43.666;18.444;2022-07-06T02:44:59;25.17;;;14.47;;
65461;SDS011;53236;43.666;18.444;2022-07-06T02:47:25;24.53;;;14.87;;
65461;SDS011;53236;43.666;18.444;2022-07-06T02:49:53;24.93;;;14.70;;
65461;SDS011;53236;43.666;18.444;2022-07-06T02:52:19;28.40;;;14.93;;
65461;SDS011;53236;43.666;18.444;2022-07-06T02:54:45;21.87;;;13.70;;
65461;SDS011;53236;43.666;18.444;2022-07-06T02:57:11;27.30;;;15.37;;
65461;SDS011;53236;43.666;18.444;2022-07-06T02:59:36;26.33;;;15.57;;
65461;SDS011;53236;43.666;18.444;2022-07-06T03:02:05;21.60;;;13.27;;
65461;SDS011;53236;43.666;18.444;2022-07-06T03:04:32;23.43;;;12.90;;
65461;SDS011;53236;43.666;18.444;2022-07-06T03:06:58;22.47;;;13.50;;
65461;SDS011;53236;43.666;18.444;2022-07-06T03:09:24;24.73;;;14.67;;
65461;SDS011;53236;43.666;18.444;2022-07-06T03:11:49;25.53;;;14.67;;
65461;SDS011;53236;43.666;18.444;2022-07-06T03:14:15;27.53;;;15.17;;
65461;SDS011;53236;43.666;18.444;2022-07-06T03:16:41;25.23;;;14.00;;
65461;SDS011;53236;43.666;18.444;2022-07-06T03:19:06;22.27;;;13.97;;
65461;SDS011;53236;43.666;18.444;2022-07-06T03:21:32;25.37;;;13.83;;
65461;SDS011;53236;43.666;18.444;2022-07-06T03:23:58;26.53;;;14.47;;
65461;SDS011;53236;43.666;18.444;2022-07-06T03:26:23;25.50;;;15.80;;
65461;SDS011;53236;43.666;18.444;2022-07-06T03:28:49;28.43;;;16.87;;
65461;SDS011;53236;43.666;18.444;2022-07-06T03:31:15;29.37;;;17.90;;
65461;SDS011;53236;43.666;18.444;2022-07-06T03:33:41;32.50;;;16.30;;
65461;SDS011;53236;43.666;18.444;2022-07-06T03:36:06;28.77;;;16.57;;
65461;SDS011;53236;43.666;18.444;2022-07-06T03:38:32;30.20;;;15.37;;
65461;SDS011;53236;43.666;18.444;2022-07-06T03:40:59;33.13;;;17.07;;
65461;SDS011;53236;43.666;18.444;2022-07-06T03:43:24;30.93;;;16.43;;
65461;SDS011;53236;43.666;18.444;2022-07-06T03:45:50;28.53;;;15.40;;
65461;SDS011;53236;43.666;18.444;2022-07-06T03:48:16;28.13;;;15.33;;
65461;SDS011;53236;43.666;18.444;2022-07-06T03:50:41;24.43;;;15.63;;
65461;SDS011;53236;43.666;18.444;2022-07-06T03:53:07;25.07;;;14.63;;
65461;SDS011;53236;43.666;18.444;2022-07-06T03:55:33;24.03;;;13.40;;
65461;SDS011;53236;43.666;18.444;2022-07-06T03:57:58;21.03;;;13.27;;
65461;SDS011;53236;43.666;18.444;2022-07-06T04:00:24;24.07;;;12.93;;
65461;SDS011;53236;43.666;18.444;2022-07-06T04:02:50;17.70;;;12.30;;
65461;SDS011;53236;43.666;18.444;2022-07-06T04:05:15;20.67;;;12.77;;
65461;SDS011;53236;43.666;18.444;2022-07-06T04:07:46;21.13;;;12.50;;
65461;SDS011;53236;43.666;18.444;2022-07-06T04:10:12;17.73;;;12.23;;
65461;SDS011;53236;43.666;18.444;2022-07-06T04:12:42;18.83;;;12.93;;
65461;SDS011;53236;43.666;18.444;2022-07-06T04:15:08;22.07;;;13.13;;
65461;SDS011;53236;43.666;18.444;2022-07-06T04:17:35;23.87;;;13.70;;
65461;SDS011;53236;43.666;18.444;2022-07-06T04:20:22;21.60;;;13.47;;
65461;SDS011;53236;43.666;18.444;2022-07-06T04:22:48;19.87;;;12.47;;
65461;SDS011;53236;43.666;18.444;2022-07-06T04:25:14;23.43;;;14.87;;
65461;SDS011;53236;43.666;18.444;2022-07-06T04:27:40;21.53;;;14.60;;
65461;SDS011;53236;43.666;18.444;2022-07-06T04:30:06;26.07;;;15.20;;
65461;SDS011;53236;43.666;18.444;2022-07-06T04:32:33;31.77;;;15.97;;
65461;SDS011;53236;43.666;18.444;2022-07-06T04:35:00;26.40;;;15.57;;
65461;SDS011;53236;43.666;18.444;2022-07-06T04:37:25;22.13;;;14.60;;
65461;SDS011;53236;43.666;18.444;2022-07-06T04:39:51;22.33;;;14.73;;
65461;SDS011;53236;43.666;18.444;2022-07-06T04:42:17;22.77;;;14.50;;
65461;SDS011;53236;43.666;18.444;2022-07-06T04:44:42;24.27;;;14.23;;
65461;SDS011;53236;43.666;18.444;2022-07-06T04:47:08;20.52;;;13.35;;
65461;SDS011;53236;43.666;18.444;2022-07-06T04:49:34;17.98;;;12.55;;
65461;SDS011;53236;43.666;18.444;2022-07-06T04:52:00;21.00;;;12.60;;
65461;SDS011;53236;43.666;18.444;2022-07-06T04:54:25;18.40;;;11.90;;
65461;SDS011;53236;43.666;18.444;2022-07-06T04:56:51;21.13;;;13.88;;
65461;SDS011;53236;43.666;18.444;2022-07-06T04:59:16;25.13;;;14.68;;
65461;SDS011;53236;43.666;18.444;2022-07-06T05:01:42;19.75;;;14.50;;
65461;SDS011;53236;43.666;18.444;2022-07-06T05:04:08;23.58;;;14.65;;
65461;SDS011;53236;43.666;18.444;2022-07-06T05:06:33;21.33;;;14.40;;
65461;SDS011;53236;43.666;18.444;2022-07-06T05:08:59;24.83;;;15.63;;
65461;SDS011;53236;43.666;18.444;2022-07-06T05:11:26;24.88;;;15.75;;
65461;SDS011;53236;43.666;18.444;2022-07-06T05:13:52;23.95;;;15.70;;
65461;SDS011;53236;43.666;18.444;2022-07-06T05:16:18;26.23;;;17.40;;
65461;SDS011;53236;43.666;18.444;2022-07-06T05:18:44;23.55;;;16.17;;
65461;SDS011;53236;43.666;18.444;2022-07-06T05:21:09;23.90;;;15.73;;
65461;SDS011;53236;43.666;18.444;2022-07-06T05:23:35;26.23;;;16.83;;
65461;SDS011;53236;43.666;18.444;2022-07-06T05:26:01;23.02;;;15.85;;
65461;SDS011;53236;43.666;18.444;2022-07-06T05:28:27;28.80;;;17.80;;
65461;SDS011;53236;43.666;18.444;2022-07-06T05:30:52;29.02;;;17.35;;
65461;SDS011;53236;43.666;18.444;2022-07-06T05:33:18;26.38;;;17.95;;
65461;SDS011;53236;43.666;18.444;2022-07-06T05:35:44;27.33;;;17.58;;
65461;SDS011;53236;43.666;18.444;2022-07-06T05:38:10;27.73;;;17.83;;
65461;SDS011;53236;43.666;18.444;2022-07-06T05:40:35;27.88;;;17.17;;
65461;SDS011;53236;43.666;18.444;2022-07-06T05:43:01;27.30;;;15.75;;
65461;SDS011;53236;43.666;18.444;2022-07-06T05:45:27;27.45;;;16.40;;
65461;SDS011;53236;43.666;18.444;2022-07-06T05:47:53;28.10;;;17.27;;
65461;SDS011;53236;43.666;18.444;2022-07-06T05:50:37;25.98;;;17.00;;
65461;SDS011;53236;43.666;18.444;2022-07-06T05:53:04;23.27;;;14.75;;
65461;SDS011;53236;43.666;18.444;2022-07-06T05:55:30;22.83;;;14.13;;
65461;SDS011;53236;43.666;18.444;2022-07-06T05:57:56;17.48;;;12.38;;
65461;SDS011;53236;43.666;18.444;2022-07-06T06:00:22;17.98;;;12.73;;
65461;SDS011;53236;43.666;18.444;2022-07-06T06:02:49;17.95;;;13.02;;
65461;SDS011;53236;43.666;18.444;2022-07-06T06:05:15;16.52;;;11.63;;
65461;SDS011;53236;43.666;18.444;2022-07-06T06:07:42;17.13;;;10.77;;
65461;SDS011;53236;43.666;18.444;2022-07-06T06:10:09;15.48;;;11.30;;
65461;SDS011;53236;43.666;18.444;2022-07-06T06:12:37;13.57;;;9.80;;
65461;SDS011;53236;43.666;18.444;2022-07-06T06:15:04;15.48;;;9.55;;
65461;SDS011;53236;43.666;18.444;2022-07-06T06:17:31;12.80;;;8.30;;
65461;SDS011;53236;43.666;18.444;2022-07-06T06:19:57;15.80;;;10.55;;
65461;SDS011;53236;43.666;18.444;2022-07-06T06:22:23;16.73;;;10.82;;
65461;SDS011;53236;43.666;18.444;2022-07-06T06:24:49;13.52;;;9.43;;
65461;SDS011;53236;43.666;18.444;2022-07-06T06:27:15;15.00;;;11.02;;
65461;SDS011;53236;43.666;18.444;2022-07-06T06:29:41;13.65;;;10.32;;
65461;SDS011;53236;43.666;18.444;2022-07-06T06:32:09;14.30;;;10.32;;
65461;SDS011;53236;43.666;18.444;2022-07-06T06:34:38;15.80;;;11.32;;
65461;SDS011;53236;43.666;18.444;2022-07-06T06:37:04;13.52;;;10.63;;
65461;SDS011;53236;43.666;18.444;2022-07-06T06:39:30;15.05;;;10.15;;
65461;SDS011;53236;43.666;18.444;2022-07-06T06:41:55;14.68;;;9.52;;
65461;SDS011;53236;43.666;18.444;2022-07-06T06:44:21;11.93;;;8.98;;
65461;SDS011;53236;43.666;18.444;2022-07-06T06:46:50;14.25;;;9.48;;
65461;SDS011;53236;43.666;18.444;2022-07-06T06:49:17;10.60;;;8.98;;
65461;SDS011;53236;43.666;18.444;2022-07-06T06:51:43;10.27;;;8.30;;
65461;SDS011;53236;43.666;18.444;2022-07-06T06:54:09;10.48;;;7.60;;
65461;SDS011;53236;43.666;18.444;2022-07-06T06:56:35;12.45;;;9.30;;
65461;SDS011;53236;43.666;18.444;2022-07-06T06:59:01;10.63;;;7.47;;
65461;SDS011;53236;43.666;18.444;2022-07-06T07:01:27;9.43;;;7.78;;
65461;SDS011;53236;43.666;18.444;2022-07-06T07:03:54;8.18;;;7.25;;
65461;SDS011;53236;43.666;18.444;2022-07-06T07:06:21;9.55;;;7.55;;
65461;SDS011;53236;43.666;18.444;2022-07-06T07:08:47;9.13;;;7.85;;
65461;SDS011;53236;43.666;18.444;2022-07-06T07:11:13;9.80;;;7.57;;
65461;SDS011;53236;43.666;18.444;2022-07-06T07:13:39;7.97;;;7.18;;
65461;SDS011;53236;43.666;18.444;2022-07-06T07:16:05;10.20;;;7.05;;
65461;SDS011;53236;43.666;18.444;2022-07-06T07:18:31;8.43;;;6.18;;
65461;SDS011;53236;43.666;18.444;2022-07-06T07:20:56;6.97;;;6.25;;
65461;SDS011;53236;43.666;18.444;2022-07-06T07:23:22;9.00;;;6.85;;
65461;SDS011;53236;43.666;18.444;2022-07-06T07:25:48;7.70;;;5.95;;
65461;SDS011;53236;43.666;18.444;2022-07-06T07:28:14;7.18;;;5.78;;
65461;SDS011;53236;43.666;18.444;2022-07-06T07:30:39;6.93;;;5.28;;
65461;SDS011;53236;43.666;18.444;2022-07-06T07:33:05;5.45;;;4.78;;
65461;SDS011;53236;43.666;18.444;2022-07-06T07:35:31;7.18;;;5.47;;
65461;SDS011;53236;43.666;18.444;2022-07-06T07:37:57;6.10;;;4.97;;
65461;SDS011;53236;43.666;18.444;2022-07-06T07:40:23;12.15;;;4.93;;
65461;SDS011;53236;43.666;18.444;2022-07-06T07:42:48;6.63;;;4.78;;
65461;SDS011;53236;43.666;18.444;2022-07-06T07:45:14;7.30;;;4.15;;
65461;SDS011;53236;43.666;18.444;2022-07-06T07:47:40;4.85;;;4.07;;
65461;SDS011;53236;43.666;18.444;2022-07-06T07:50:06;8.07;;;4.88;;
65461;SDS011;53236;43.666;18.444;2022-07-06T07:52:33;4.80;;;4.10;;
65461;SDS011;53236;43.666;18.444;2022-07-06T07:55:00;6.78;;;3.83;;
65461;SDS011;53236;43.666;18.444;2022-07-06T07:57:29;6.28;;;4.20;;
65461;SDS011;53236;43.666;18.444;2022-07-06T07:59:55;5.60;;;2.80;;
65461;SDS011;53236;43.666;18.444;2022-07-06T08:02:20;5.40;;;3.28;;
65461;SDS011;53236;43.666;18.444;2022-07-06T08:04:46;4.22;;;3.00;;
65461;SDS011;53236;43.666;18.444;2022-07-06T08:07:12;5.13;;;3.97;;
65461;SDS011;53236;43.666;18.444;2022-07-06T08:09:37;6.18;;;3.03;;
65461;SDS011;53236;43.666;18.444;2022-07-06T08:12:03;7.55;;;3.20;;
65461;SDS011;53236;43.666;18.444;2022-07-06T08:14:29;4.03;;;3.47;;
65461;SDS011;53236;43.666;18.444;2022-07-06T08:16:54;9.65;;;4.03;;
65461;SDS011;53236;43.666;18.444;2022-07-06T08:19:20;5.45;;;3.28;;
65461;SDS011;53236;43.666;18.444;2022-07-06T08:21:45;4.35;;;3.40;;
65461;SDS011;53236;43.666;18.444;2022-07-06T08:24:11;4.13;;;2.92;;
65461;SDS011;53236;43.666;18.444;2022-07-06T08:26:37;4.32;;;3.15;;
65461;SDS011;53236;43.666;18.444;2022-07-06T08:29:03;4.70;;;2.88;;
65461;SDS011;53236;43.666;18.444;2022-07-06T08:31:29;5.07;;;3.10;;
65461;SDS011;53236;43.666;18.444;2022-07-06T08:33:56;3.85;;;2.70;;
65461;SDS011;53236;43.666;18.444;2022-07-06T08:36:22;7.43;;;2.63;;
65461;SDS011;53236;43.666;18.444;2022-07-06T08:38:49;3.47;;;2.60;;
65461;SDS011;53236;43.666;18.444;2022-07-06T08:41:15;4.00;;;2.67;;
65461;SDS011;53236;43.666;18.444;2022-07-06T08:43:41;4.22;;;2.75;;
65461;SDS011;53236;43.666;18.444;2022-07-06T08:46:07;3.88;;;2.40;;
65461;SDS011;53236;43.666;18.444;2022-07-06T08:48:36;3.28;;;2.30;;
65461;SDS011;53236;43.666;18.444;2022-07-06T08:51:05;4.32;;;2.75;;
65461;SDS011;53236;43.666;18.444;2022-07-06T08:53:31;3.25;;;2.50;;
65461;SDS011;53236;43.666;18.444;2022-07-06T08:55:56;4.30;;;2.90;;
65461;SDS011;53236;43.666;18.444;2022-07-06T08:58:23;4.18;;;2.90;;
65461;SDS011;53236;43.666;18.444;2022-07-06T09:00:51;4.85;;;3.00;;
65461;SDS011;53236;43.666;18.444;2022-07-06T09:03:17;6.13;;;2.83;;
65461;SDS011;53236;43.666;18.444;2022-07-06T09:05:45;5.30;;;2.95;;
65461;SDS011;53236;43.666;18.444;2022-07-06T09:08:11;3.72;;;2.60;;
65461;SDS011;53236;43.666;18.444;2022-07-06T09:10:37;2.90;;;2.15;;
65461;SDS011;53236;43.666;18.444;2022-07-06T09:13:04;4.38;;;2.78;;
65461;SDS011;53236;43.666;18.444;2022-07-06T09:15:31;5.15;;;2.80;;
65461;SDS011;53236;43.666;18.444;2022-07-06T09:17:58;5.25;;;3.00;;
65461;SDS011;53236;43.666;18.444;2022-07-06T09:20:24;7.20;;;3.30;;
65461;SDS011;53236;43.666;18.444;2022-07-06T09:22:50;4.90;;;2.85;;
65461;SDS011;53236;43.666;18.444;2022-07-06T09:25:18;3.30;;;2.58;;
65461;SDS011;53236;43.666;18.444;2022-07-06T09:27:45;4.72;;;2.80;;
65461;SDS011;53236;43.666;18.444;2022-07-06T09:32:55;5.57;;;3.92;;
65461;SDS011;53236;43.666;18.444;2022-07-06T09:40:45;5.70;;;4.43;;
65461;SDS011;53236;43.666;18.444;2022-07-06T09:45:39;5.05;;;3.90;;
65461;SDS011;53236;43.666;18.444;2022-07-06T09:48:11;6.85;;;4.43;;
65461;SDS011;53236;43.666;18.444;2022-07-06T09:50:42;5.63;;;4.35;;
65461;SDS011;53236;43.666;18.444;2022-07-06T09:53:08;5.50;;;4.22;;
65461;SDS011;53236;43.666;18.444;2022-07-06T09:55:35;6.07;;;4.30;;
65461;SDS011;53236;43.666;18.444;2022-07-06T09:58:00;7.05;;;4.90;;
65461;SDS011;53236;43.666;18.444;2022-07-06T10:00:27;6.55;;;4.22;;
65461;SDS011;53236;43.666;18.444;2022-07-06T10:02:53;8.38;;;4.88;;
65461;SDS011;53236;43.666;18.444;2022-07-06T10:05:19;9.23;;;4.95;;
65461;SDS011;53236;43.666;18.444;2022-07-06T10:07:51;6.95;;;4.97;;
65461;SDS011;53236;43.666;18.444;2022-07-06T10:10:20;5.68;;;4.32;;
65461;SDS011;53236;43.666;18.444;2022-07-06T10:12:48;7.88;;;5.00;;
65461;SDS011;53236;43.666;18.444;2022-07-06T10:15:15;6.95;;;4.85;;
65461;SDS011;53236;43.666;18.444;2022-07-06T10:17:43;7.15;;;5.05;;
65461;SDS011;53236;43.666;18.444;2022-07-06T10:20:10;7.15;;;5.00;;
65461;SDS011;53236;43.666;18.444;2022-07-06T10:22:36;7.70;;;4.72;;
65461;SDS011;53236;43.666;18.444;2022-07-06T10:25:04;9.43;;;5.22;;
65461;SDS011;53236;43.666;18.444;2022-07-06T10:27:31;8.32;;;5.13;;
65461;SDS011;53236;43.666;18.444;2022-07-06T10:29:58;6.50;;;5.00;;
65461;SDS011;53236;43.666;18.444;2022-07-06T10:32:23;9.65;;;5.20;;
65461;SDS011;53236;43.666;18.444;2022-07-06T10:34:50;7.93;;;5.22;;
65461;SDS011;53236;43.666;18.444;2022-07-06T10:37:23;7.82;;;5.35;;
65461;SDS011;53236;43.666;18.444;2022-07-06T10:39:52;10.82;;;5.40;;
65461;SDS011;53236;43.666;18.444;2022-07-06T10:45:06;7.03;;;4.75;;
65461;SDS011;53236;43.666;18.444;2022-07-06T10:47:35;9.20;;;5.55;;
65461;SDS011;53236;43.666;18.444;2022-07-06T10:50:02;6.68;;;4.90;;
65461;SDS011;53236;43.666;18.444;2022-07-06T10:52:48;8.63;;;5.50;;
65461;SDS011;53236;43.666;18.444;2022-07-06T10:55:27;8.93;;;5.65;;
65461;SDS011;53236;43.666;18.444;2022-07-06T10:57:55;8.48;;;5.72;;
65461;SDS011;53236;43.666;18.444;2022-07-06T11:00:21;7.80;;;5.47;;
65461;SDS011;53236;43.666;18.444;2022-07-06T11:02:46;7.75;;;5.18;;
65461;SDS011;53236;43.666;18.444;2022-07-06T11:05:39;7.45;;;4.90;;
65461;SDS011;53236;43.666;18.444;2022-07-06T11:08:05;8.93;;;5.00;;
65461;SDS011;53236;43.666;18.444;2022-07-06T11:10:47;8.30;;;5.15;;
65461;SDS011;53236;43.666;18.444;2022-07-06T11:13:26;6.40;;;4.28;;
65461;SDS011;53236;43.666;18.444;2022-07-06T11:16:00;6.25;;;4.75;;
65461;SDS011;53236;43.666;18.444;2022-07-06T11:18:28;8.25;;;4.97;;
65461;SDS011;53236;43.666;18.444;2022-07-06T11:21:17;8.65;;;4.88;;
65461;SDS011;53236;43.666;18.444;2022-07-06T11:23:46;7.50;;;5.32;;
65461;SDS011;53236;43.666;18.444;2022-07-06T11:26:13;11.27;;;5.32;;
65461;SDS011;53236;43.666;18.444;2022-07-06T11:28:40;10.00;;;4.65;;
65461;SDS011;53236;43.666;18.444;2022-07-06T11:31:06;7.10;;;4.85;;
65461;SDS011;53236;43.666;18.444;2022-07-06T11:33:31;8.27;;;4.57;;
65461;SDS011;53236;43.666;18.444;2022-07-06T11:36:17;7.53;;;4.82;;
65461;SDS011;53236;43.666;18.444;2022-07-06T11:38:45;9.65;;;5.07;;
65461;SDS011;53236;43.666;18.444;2022-07-06T11:41:11;8.27;;;5.40;;
65461;SDS011;53236;43.666;18.444;2022-07-06T11:43:45;8.60;;;4.68;;
65461;SDS011;53236;43.666;18.444;2022-07-06T11:46:25;6.93;;;4.40;;
65461;SDS011;53236;43.666;18.444;2022-07-06T11:48:55;6.15;;;4.60;;
65461;SDS011;53236;43.666;18.444;2022-07-06T11:51:26;5.95;;;4.38;;
65461;SDS011;53236;43.666;18.444;2022-07-06T11:53:57;6.45;;;4.47;;
65461;SDS011;53236;43.666;18.444;2022-07-06T11:56:30;8.02;;;4.75;;
65461;SDS011;53236;43.666;18.444;2022-07-06T11:58:57;9.77;;;5.07;;
65461;SDS011;53236;43.666;18.444;2022-07-06T12:01:25;6.78;;;4.70;;
65461;SDS011;53236;43.666;18.444;2022-07-06T12:03:52;6.55;;;4.93;;
65461;SDS011;53236;43.666;18.444;2022-07-06T12:06:22;9.20;;;5.05;;
65461;SDS011;53236;43.666;18.444;2022-07-06T12:08:53;8.30;;;4.63;;
65461;SDS011;53236;43.666;18.444;2022-07-06T12:11:29;8.23;;;4.90;;
65461;SDS011;53236;43.666;18.444;2022-07-06T12:14:01;6.78;;;4.20;;
65461;SDS011;53236;43.666;18.444;2022-07-06T12:16:48;9.63;;;4.65;;
65461;SDS011;53236;43.666;18.444;2022-07-06T12:19:15;5.97;;;4.20;;
65461;SDS011;53236;43.666;18.444;2022-07-06T12:24:16;6.20;;;4.25;;
65461;SDS011;53236;43.666;18.444;2022-07-06T12:26:49;7.70;;;4.50;;
65461;SDS011;53236;43.666;18.444;2022-07-06T12:29:15;7.03;;;4.60;;
65461;SDS011;53236;43.666;18.444;2022-07-06T12:31:43;5.68;;;4.05;;
65461;SDS011;53236;43.666;18.444;2022-07-06T12:34:26;6.60;;;4.50;;
65461;SDS011;53236;43.666;18.444;2022-07-06T12:37:03;5.97;;;4.13;;
65461;SDS011;53236;43.666;18.444;2022-07-06T12:39:40;6.82;;;4.78;;
65461;SDS011;53236;43.666;18.444;2022-07-06T12:42:13;6.80;;;4.53;;
65461;SDS011;53236;43.666;18.444;2022-07-06T12:44:44;7.10;;;4.60;;
65461;SDS011;53236;43.666;18.444;2022-07-06T12:47:17;6.60;;;4.03;;
65461;SDS011;53236;43.666;18.444;2022-07-06T12:49:49;6.57;;;4.22;;
65461;SDS011;53236;43.666;18.444;2022-07-06T12:52:35;9.45;;;4.90;;
65461;SDS011;53236;43.666;18.444;2022-07-06T12:55:02;6.28;;;4.00;;
65461;SDS011;53236;43.666;18.444;2022-07-06T12:57:41;7.60;;;3.90;;
65461;SDS011;53236;43.666;18.444;2022-07-06T13:00:08;9.15;;;4.70;;
65461;SDS011;53236;43.666;18.444;2022-07-06T13:02:35;7.10;;;4.25;;
65461;SDS011;53236;43.666;18.444;2022-07-06T13:05:03;10.23;;;4.28;;
65461;SDS011;53236;43.666;18.444;2022-07-06T13:07:35;7.05;;;4.07;;
65461;SDS011;53236;43.666;18.444;2022-07-06T13:10:06;6.72;;;4.05;;
65461;SDS011;53236;43.666;18.444;2022-07-06T13:12:34;5.00;;;3.40;;
65461;SDS011;53236;43.666;18.444;2022-07-06T13:15:00;6.75;;;4.53;;
65461;SDS011;53236;43.666;18.444;2022-07-06T13:17:26;5.40;;;4.00;;
65461;SDS011;53236;43.666;18.444;2022-07-06T13:19:52;5.97;;;3.53;;
65461;SDS011;53236;43.666;18.444;2022-07-06T13:22:17;6.78;;;4.13;;
65461;SDS011;53236;43.666;18.444;2022-07-06T13:24:44;7.45;;;3.70;;
65461;SDS011;53236;43.666;18.444;2022-07-06T13:27:10;7.95;;;3.63;;
65461;SDS011;53236;43.666;18.444;2022-07-06T13:29:36;5.75;;;2.90;;
65461;SDS011;53236;43.666;18.444;2022-07-06T13:32:02;4.18;;;2.92;;
65461;SDS011;53236;43.666;18.444;2022-07-06T13:34:31;4.28;;;2.75;;
65461;SDS011;53236;43.666;18.444;2022-07-06T13:36:57;5.78;;;3.33;;
65461;SDS011;53236;43.666;18.444;2022-07-06T13:39:22;4.55;;;2.60;;
65461;SDS011;53236;43.666;18.444;2022-07-06T13:41:49;4.72;;;2.83;;
65461;SDS011;53236;43.666;18.444;2022-07-06T13:44:15;4.72;;;2.97;;
65461;SDS011;53236;43.666;18.444;2022-07-06T13:46:41;5.35;;;2.47;;
65461;SDS011;53236;43.666;18.444;2022-07-06T13:49:11;4.47;;;2.35;;
65461;SDS011;53236;43.666;18.444;2022-07-06T13:51:36;2.83;;;1.98;;
65461;SDS011;53236;43.666;18.444;2022-07-06T13:54:02;4.05;;;2.20;;
65461;SDS011;53236;43.666;18.444;2022-07-06T13:56:28;5.38;;;2.20;;
65461;SDS011;53236;43.666;18.444;2022-07-06T13:58:54;4.10;;;2.20;;
65461;SDS011;53236;43.666;18.444;2022-07-06T14:01:20;4.20;;;1.35;;
65461;SDS011;53236;43.666;18.444;2022-07-06T14:03:46;2.40;;;1.60;;
65461;SDS011;53236;43.666;18.444;2022-07-06T14:06:12;4.95;;;1.88;;
65461;SDS011;53236;43.666;18.444;2022-07-06T14:08:38;3.15;;;1.70;;
65461;SDS011;53236;43.666;18.444;2022-07-06T14:11:05;3.58;;;1.75;;
65461;SDS011;53236;43.666;18.444;2022-07-06T14:13:33;3.65;;;2.55;;
65461;SDS011;53236;43.666;18.444;2022-07-06T14:16:05;5.10;;;2.10;;
65461;SDS011;53236;43.666;18.444;2022-07-06T14:18:32;3.67;;;2.33;;
65461;SDS011;53236;43.666;18.444;2022-07-06T14:21:10;4.88;;;2.05;;
65461;SDS011;53236;43.666;18.444;2022-07-06T14:23:36;3.85;;;2.00;;
65461;SDS011;53236;43.666;18.444;2022-07-06T14:26:01;4.57;;;1.85;;
65461;SDS011;53236;43.666;18.444;2022-07-06T14:28:27;3.20;;;1.90;;
65461;SDS011;53236;43.666;18.444;2022-07-06T14:30:53;2.85;;;1.77;;
65461;SDS011;53236;43.666;18.444;2022-07-06T14:33:18;3.42;;;2.13;;
65461;SDS011;53236;43.666;18.444;2022-07-06T14:35:45;3.63;;;1.80;;
65461;SDS011;53236;43.666;18.444;2022-07-06T14:38:12;3.65;;;1.95;;
65461;SDS011;53236;43.666;18.444;2022-07-06T14:40:39;4.90;;;1.58;;